sensor_id;sensor_type;location;lat;lon;timestamp;P1;durP1;ratioP1;P2;durP2;ratioP2
51194;SDS011;37259;49.972;19.850;2023-12-14T00:00:12;36.9;;;19.4;;
51194;SDS011;37259;49.972;19.850;2023-12-14T00:01:12;36.9;;;19.4;;
51194;SDS011;37259;49.972;19.850;2023-12-14T00:02:12;34.1;;;18.8;;
51194;SDS011;37259;49.972;19.850;2023-12-14T00:03:12;34.1;;;18.8;;
51194;SDS011;37259;49.972;19.850;2023-12-14T00:04:12;34.1;;;18.8;;
51194;SDS011;37259;49.972;19.850;2023-12-14T00:05:12;34.1;;;18.8;;
51194;SDS011;37259;49.972;19.850;2023-12-14T00:06:13;34.1;;;18.8;;
51194;SDS011;37259;49.972;19.850;2023-12-14T00:07:12;34.1;;;18.8;;
51194;SDS011;37259;49.972;19.850;2023-12-14T00:08:12;34.1;;;18.8;;
51194;SDS011;37259;49.972;19.850;2023-12-14T00:09:12;34.1;;;18.8;;
51194;SDS011;37259;49.972;19.850;2023-12-14T00:10:12;34.1;;;18.8;;
51194;SDS011;37259;49.972;19.850;2023-12-14T00:11:12;34.1;;;18.8;;
51194;SDS011;37259;49.972;19.850;2023-12-14T00:12:12;34.1;;;18.8;;
51194;SDS011;37259;49.972;19.850;2023-12-14T00:13:12;34.1;;;18.8;;
51194;SDS011;37259;49.972;19.850;2023-12-14T00:14:12;34.1;;;18.8;;
51194;SDS011;37259;49.972;19.850;2023-12-14T00:15:12;34.1;;;18.8;;
51194;SDS011;37259;49.972;19.850;2023-12-14T00:16:12;34.1;;;18.8;;
51194;SDS011;37259;49.972;19.850;2023-12-14T00:17:12;34.1;;;18.8;;
51194;SDS011;37259;49.972;19.850;2023-12-14T00:18:12;34.1;;;18.8;;
51194;SDS011;37259;49.972;19.850;2023-12-14T00:19:12;34.1;;;18.8;;
51194;SDS011;37259;49.972;19.850;2023-12-14T00:20:12;34.1;;;18.8;;
51194;SDS011;37259;49.972;19.850;2023-12-14T00:21:12;34.1;;;18.8;;
51194;SDS011;37259;49.972;19.850;2023-12-14T00:22:12;34.1;;;18.8;;
51194;SDS011;37259;49.972;19.850;2023-12-14T00:23:12;34.1;;;18.8;;
51194;SDS011;37259;49.972;19.850;2023-12-14T00:24:12;34.1;;;18.8;;
51194;SDS011;37259;49.972;19.850;2023-12-14T00:25:12;34.1;;;18.8;;
51194;SDS011;37259;49.972;19.850;2023-12-14T00:26:12;34.1;;;18.8;;
51194;SDS011;37259;49.972;19.850;2023-12-14T00:27:12;34.1;;;18.8;;
51194;SDS011;37259;49.972;19.850;2023-12-14T00:28:12;34.1;;;18.8;;
51194;SDS011;37259;49.972;19.850;2023-12-14T00:29:12;34.1;;;18.8;;
51194;SDS011;37259;49.972;19.850;2023-12-14T00:30:13;34.1;;;18.8;;
51194;SDS011;37259;49.972;19.850;2023-12-14T00:31:12;31.2;;;17.2;;
51194;SDS011;37259;49.972;19.850;2023-12-14T00:32:12;31.2;;;17.2;;
51194;SDS011;37259;49.972;19.850;2023-12-14T00:33:12;31.2;;;17.2;;
51194;SDS011;37259;49.972;19.850;2023-12-14T00:34:12;31.2;;;17.2;;
51194;SDS011;37259;49.972;19.850;2023-12-14T00:35:12;31.2;;;17.2;;
51194;SDS011;37259;49.972;19.850;2023-12-14T00:36:17;31.2;;;17.2;;
51194;SDS011;37259;49.972;19.850;2023-12-14T00:37:12;31.2;;;17.2;;
51194;SDS011;37259;49.972;19.850;2023-12-14T00:38:12;31.2;;;17.2;;
51194;SDS011;37259;49.972;19.850;2023-12-14T00:39:12;31.2;;;17.2;;
51194;SDS011;37259;49.972;19.850;2023-12-14T00:40:12;31.2;;;17.2;;
51194;SDS011;37259;49.972;19.850;2023-12-14T00:41:12;31.2;;;17.2;;
51194;SDS011;37259;49.972;19.850;2023-12-14T00:42:12;31.2;;;17.2;;
51194;SDS011;37259;49.972;19.850;2023-12-14T00:43:12;31.2;;;17.2;;
51194;SDS011;37259;49.972;19.850;2023-12-14T00:44:12;31.2;;;17.2;;
51194;SDS011;37259;49.972;19.850;2023-12-14T00:45:12;31.2;;;17.2;;
51194;SDS011;37259;49.972;19.850;2023-12-14T00:46:12;31.2;;;17.2;;
51194;SDS011;37259;49.972;19.850;2023-12-14T00:47:12;31.2;;;17.2;;
51194;SDS011;37259;49.972;19.850;2023-12-14T00:48:12;31.2;;;17.2;;
51194;SDS011;37259;49.972;19.850;2023-12-14T00:49:12;31.2;;;17.2;;
51194;SDS011;37259;49.972;19.850;2023-12-14T00:50:12;31.2;;;17.2;;
51194;SDS011;37259;49.972;19.850;2023-12-14T00:51:12;31.2;;;17.2;;
51194;SDS011;37259;49.972;19.850;2023-12-14T00:52:12;31.2;;;17.2;;
51194;SDS011;37259;49.972;19.850;2023-12-14T00:53:12;31.2;;;17.2;;
51194;SDS011;37259;49.972;19.850;2023-12-14T00:54:12;31.2;;;17.2;;
51194;SDS011;37259;49.972;19.850;2023-12-14T00:55:12;31.2;;;17.2;;
51194;SDS011;37259;49.972;19.850;2023-12-14T00:56:12;31.2;;;17.2;;
51194;SDS011;37259;49.972;19.850;2023-12-14T00:57:12;31.2;;;17.2;;
51194;SDS011;37259;49.972;19.850;2023-12-14T00:58:12;31.2;;;17.2;;
51194;SDS011;37259;49.972;19.850;2023-12-14T00:59:12;31.2;;;17.2;;
51194;SDS011;37259;49.972;19.850;2023-12-14T01:00:12;31.2;;;17.2;;
51194;SDS011;37259;49.972;19.850;2023-12-14T01:01:12;33.3;;;17.8;;
51194;SDS011;37259;49.972;19.850;2023-12-14T01:02:12;33.3;;;17.8;;
51194;SDS011;37259;49.972;19.850;2023-12-14T01:03:12;33.3;;;17.8;;
51194;SDS011;37259;49.972;19.850;2023-12-14T01:04:12;33.3;;;17.8;;
51194;SDS011;37259;49.972;19.850;2023-12-14T01:05:12;33.3;;;17.8;;
51194;SDS011;37259;49.972;19.850;2023-12-14T01:06:12;33.3;;;17.8;;
51194;SDS011;37259;49.972;19.850;2023-12-14T01:07:12;33.3;;;17.8;;
51194;SDS011;37259;49.972;19.850;2023-12-14T01:08:12;33.3;;;17.8;;
51194;SDS011;37259;49.972;19.850;2023-12-14T01:09:12;33.3;;;17.8;;
51194;SDS011;37259;49.972;19.850;2023-12-14T01:10:12;33.3;;;17.8;;
51194;SDS011;37259;49.972;19.850;2023-12-14T01:11:12;33.3;;;17.8;;
51194;SDS011;37259;49.972;19.850;2023-12-14T01:12:12;33.3;;;17.8;;
51194;SDS011;37259;49.972;19.850;2023-12-14T01:13:13;33.3;;;17.8;;
51194;SDS011;37259;49.972;19.850;2023-12-14T01:14:12;33.3;;;17.8;;
51194;SDS011;37259;49.972;19.850;2023-12-14T01:15:12;33.3;;;17.8;;
51194;SDS011;37259;49.972;19.850;2023-12-14T01:16:12;33.3;;;17.8;;
51194;SDS011;37259;49.972;19.850;2023-12-14T01:17:12;33.3;;;17.8;;
51194;SDS011;37259;49.972;19.850;2023-12-14T01:18:12;33.3;;;17.8;;
51194;SDS011;37259;49.972;19.850;2023-12-14T01:19:12;33.3;;;17.8;;
51194;SDS011;37259;49.972;19.850;2023-12-14T01:20:12;33.3;;;17.8;;
51194;SDS011;37259;49.972;19.850;2023-12-14T01:21:12;33.3;;;17.8;;
51194;SDS011;37259;49.972;19.850;2023-12-14T01:22:12;33.3;;;17.8;;
51194;SDS011;37259;49.972;19.850;2023-12-14T01:23:12;33.3;;;17.8;;
51194;SDS011;37259;49.972;19.850;2023-12-14T01:24:12;33.3;;;17.8;;
51194;SDS011;37259;49.972;19.850;2023-12-14T01:25:12;33.3;;;17.8;;
51194;SDS011;37259;49.972;19.850;2023-12-14T01:26:12;33.3;;;17.8;;
51194;SDS011;37259;49.972;19.850;2023-12-14T01:27:12;33.3;;;17.8;;
51194;SDS011;37259;49.972;19.850;2023-12-14T01:28:12;33.3;;;17.8;;
51194;SDS011;37259;49.972;19.850;2023-12-14T01:29:12;33.3;;;17.8;;
51194;SDS011;37259;49.972;19.850;2023-12-14T01:30:13;33.3;;;17.8;;
51194;SDS011;37259;49.972;19.850;2023-12-14T01:31:13;27.6;;;14.4;;
51194;SDS011;37259;49.972;19.850;2023-12-14T01:32:12;27.6;;;14.4;;
51194;SDS011;37259;49.972;19.850;2023-12-14T01:33:12;27.6;;;14.4;;
51194;SDS011;37259;49.972;19.850;2023-12-14T01:34:12;27.6;;;14.4;;
51194;SDS011;37259;49.972;19.850;2023-12-14T01:35:12;27.6;;;14.4;;
51194;SDS011;37259;49.972;19.850;2023-12-14T01:36:19;27.6;;;14.4;;
51194;SDS011;37259;49.972;19.850;2023-12-14T01:37:12;27.6;;;14.4;;
51194;SDS011;37259;49.972;19.850;2023-12-14T01:38:12;27.6;;;14.4;;
51194;SDS011;37259;49.972;19.850;2023-12-14T01:39:12;27.6;;;14.4;;
51194;SDS011;37259;49.972;19.850;2023-12-14T01:40:12;27.6;;;14.4;;
51194;SDS011;37259;49.972;19.850;2023-12-14T01:41:13;27.6;;;14.4;;
51194;SDS011;37259;49.972;19.850;2023-12-14T01:42:12;27.6;;;14.4;;
51194;SDS011;37259;49.972;19.850;2023-12-14T01:43:12;27.6;;;14.4;;
51194;SDS011;37259;49.972;19.850;2023-12-14T01:44:12;27.6;;;14.4;;
51194;SDS011;37259;49.972;19.850;2023-12-14T01:45:12;27.6;;;14.4;;
51194;SDS011;37259;49.972;19.850;2023-12-14T01:46:12;27.6;;;14.4;;
51194;SDS011;37259;49.972;19.850;2023-12-14T01:47:12;27.6;;;14.4;;
51194;SDS011;37259;49.972;19.850;2023-12-14T01:48:12;27.6;;;14.4;;
51194;SDS011;37259;49.972;19.850;2023-12-14T01:49:12;27.6;;;14.4;;
51194;SDS011;37259;49.972;19.850;2023-12-14T01:50:12;27.6;;;14.4;;
51194;SDS011;37259;49.972;19.850;2023-12-14T01:51:12;27.6;;;14.4;;
51194;SDS011;37259;49.972;19.850;2023-12-14T01:52:12;27.6;;;14.4;;
51194;SDS011;37259;49.972;19.850;2023-12-14T01:53:12;27.6;;;14.4;;
51194;SDS011;37259;49.972;19.850;2023-12-14T01:54:12;27.6;;;14.4;;
51194;SDS011;37259;49.972;19.850;2023-12-14T01:55:12;27.6;;;14.4;;
51194;SDS011;37259;49.972;19.850;2023-12-14T01:56:12;27.6;;;14.4;;
51194;SDS011;37259;49.972;19.850;2023-12-14T01:57:12;27.6;;;14.4;;
51194;SDS011;37259;49.972;19.850;2023-12-14T01:58:12;27.6;;;14.4;;
51194;SDS011;37259;49.972;19.850;2023-12-14T01:59:12;27.6;;;14.4;;
51194;SDS011;37259;49.972;19.850;2023-12-14T02:00:14;27.6;;;14.4;;
51194;SDS011;37259;49.972;19.850;2023-12-14T02:01:14;22.1;;;12.4;;
51194;SDS011;37259;49.972;19.850;2023-12-14T02:02:12;22.1;;;12.4;;
51194;SDS011;37259;49.972;19.850;2023-12-14T02:03:13;22.1;;;12.4;;
51194;SDS011;37259;49.972;19.850;2023-12-14T02:04:13;22.1;;;12.4;;
51194;SDS011;37259;49.972;19.850;2023-12-14T02:05:12;22.1;;;12.4;;
51194;SDS011;37259;49.972;19.850;2023-12-14T02:06:12;22.1;;;12.4;;
51194;SDS011;37259;49.972;19.850;2023-12-14T02:07:12;22.1;;;12.4;;
51194;SDS011;37259;49.972;19.850;2023-12-14T02:08:12;22.1;;;12.4;;
51194;SDS011;37259;49.972;19.850;2023-12-14T02:09:12;22.1;;;12.4;;
51194;SDS011;37259;49.972;19.850;2023-12-14T02:10:12;22.1;;;12.4;;
51194;SDS011;37259;49.972;19.850;2023-12-14T02:11:12;22.1;;;12.4;;
51194;SDS011;37259;49.972;19.850;2023-12-14T02:12:12;22.1;;;12.4;;
51194;SDS011;37259;49.972;19.850;2023-12-14T02:13:12;22.1;;;12.4;;
51194;SDS011;37259;49.972;19.850;2023-12-14T02:14:13;22.1;;;12.4;;
51194;SDS011;37259;49.972;19.850;2023-12-14T02:15:12;22.1;;;12.4;;
51194;SDS011;37259;49.972;19.850;2023-12-14T02:16:12;22.1;;;12.4;;
51194;SDS011;37259;49.972;19.850;2023-12-14T02:17:12;22.1;;;12.4;;
51194;SDS011;37259;49.972;19.850;2023-12-14T02:18:12;22.1;;;12.4;;
51194;SDS011;37259;49.972;19.850;2023-12-14T02:19:12;22.1;;;12.4;;
51194;SDS011;37259;49.972;19.850;2023-12-14T02:20:12;22.1;;;12.4;;
51194;SDS011;37259;49.972;19.850;2023-12-14T02:21:13;22.1;;;12.4;;
51194;SDS011;37259;49.972;19.850;2023-12-14T02:22:12;22.1;;;12.4;;
51194;SDS011;37259;49.972;19.850;2023-12-14T02:23:12;22.1;;;12.4;;
51194;SDS011;37259;49.972;19.850;2023-12-14T02:24:12;22.1;;;12.4;;
51194;SDS011;37259;49.972;19.850;2023-12-14T02:25:12;22.1;;;12.4;;
51194;SDS011;37259;49.972;19.850;2023-12-14T02:26:12;22.1;;;12.4;;
51194;SDS011;37259;49.972;19.850;2023-12-14T02:27:12;22.1;;;12.4;;
51194;SDS011;37259;49.972;19.850;2023-12-14T02:28:12;22.1;;;12.4;;
51194;SDS011;37259;49.972;19.850;2023-12-14T02:29:12;22.1;;;12.4;;
51194;SDS011;37259;49.972;19.850;2023-12-14T02:30:13;22.1;;;12.4;;
51194;SDS011;37259;49.972;19.850;2023-12-14T02:31:12;29.1;;;16.6;;
51194;SDS011;37259;49.972;19.850;2023-12-14T02:32:12;29.1;;;16.6;;
51194;SDS011;37259;49.972;19.850;2023-12-14T02:33:12;29.1;;;16.6;;
51194;SDS011;37259;49.972;19.850;2023-12-14T02:34:12;29.1;;;16.6;;
51194;SDS011;37259;49.972;19.850;2023-12-14T02:35:12;29.1;;;16.6;;
51194;SDS011;37259;49.972;19.850;2023-12-14T02:36:12;29.1;;;16.6;;
51194;SDS011;37259;49.972;19.850;2023-12-14T02:37:12;29.1;;;16.6;;
51194;SDS011;37259;49.972;19.850;2023-12-14T02:38:12;29.1;;;16.6;;
51194;SDS011;37259;49.972;19.850;2023-12-14T02:39:12;29.1;;;16.6;;
51194;SDS011;37259;49.972;19.850;2023-12-14T02:40:13;29.1;;;16.6;;
51194;SDS011;37259;49.972;19.850;2023-12-14T02:41:12;29.1;;;16.6;;
51194;SDS011;37259;49.972;19.850;2023-12-14T02:42:12;29.1;;;16.6;;
51194;SDS011;37259;49.972;19.850;2023-12-14T02:43:12;29.1;;;16.6;;
51194;SDS011;37259;49.972;19.850;2023-12-14T02:44:12;29.1;;;16.6;;
51194;SDS011;37259;49.972;19.850;2023-12-14T02:45:12;29.1;;;16.6;;
51194;SDS011;37259;49.972;19.850;2023-12-14T02:46:12;29.1;;;16.6;;
51194;SDS011;37259;49.972;19.850;2023-12-14T02:47:12;29.1;;;16.6;;
51194;SDS011;37259;49.972;19.850;2023-12-14T02:48:12;29.1;;;16.6;;
51194;SDS011;37259;49.972;19.850;2023-12-14T02:49:12;29.1;;;16.6;;
51194;SDS011;37259;49.972;19.850;2023-12-14T02:50:13;29.1;;;16.6;;
51194;SDS011;37259;49.972;19.850;2023-12-14T02:51:13;29.1;;;16.6;;
51194;SDS011;37259;49.972;19.850;2023-12-14T02:52:12;29.1;;;16.6;;
51194;SDS011;37259;49.972;19.850;2023-12-14T02:53:12;29.1;;;16.6;;
51194;SDS011;37259;49.972;19.850;2023-12-14T02:54:12;29.1;;;16.6;;
51194;SDS011;37259;49.972;19.850;2023-12-14T02:55:12;29.1;;;16.6;;
51194;SDS011;37259;49.972;19.850;2023-12-14T02:56:12;29.1;;;16.6;;
51194;SDS011;37259;49.972;19.850;2023-12-14T02:57:12;29.1;;;16.6;;
51194;SDS011;37259;49.972;19.850;2023-12-14T02:58:12;29.1;;;16.6;;
51194;SDS011;37259;49.972;19.850;2023-12-14T02:59:12;29.1;;;16.6;;
51194;SDS011;37259;49.972;19.850;2023-12-14T03:00:13;29.1;;;16.6;;
51194;SDS011;37259;49.972;19.850;2023-12-14T03:01:12;33.1;;;15.9;;
51194;SDS011;37259;49.972;19.850;2023-12-14T03:02:12;33.1;;;15.9;;
51194;SDS011;37259;49.972;19.850;2023-12-14T03:03:12;33.1;;;15.9;;
51194;SDS011;37259;49.972;19.850;2023-12-14T03:04:12;33.1;;;15.9;;
51194;SDS011;37259;49.972;19.850;2023-12-14T03:05:12;33.1;;;15.9;;
51194;SDS011;37259;49.972;19.850;2023-12-14T03:06:12;33.1;;;15.9;;
51194;SDS011;37259;49.972;19.850;2023-12-14T03:07:12;33.1;;;15.9;;
51194;SDS011;37259;49.972;19.850;2023-12-14T03:08:12;33.1;;;15.9;;
51194;SDS011;37259;49.972;19.850;2023-12-14T03:09:12;33.1;;;15.9;;
51194;SDS011;37259;49.972;19.850;2023-12-14T03:10:12;33.1;;;15.9;;
51194;SDS011;37259;49.972;19.850;2023-12-14T03:11:20;33.1;;;15.9;;
51194;SDS011;37259;49.972;19.850;2023-12-14T03:12:12;33.1;;;15.9;;
51194;SDS011;37259;49.972;19.850;2023-12-14T03:13:12;33.1;;;15.9;;
51194;SDS011;37259;49.972;19.850;2023-12-14T03:14:12;33.1;;;15.9;;
51194;SDS011;37259;49.972;19.850;2023-12-14T03:15:12;33.1;;;15.9;;
51194;SDS011;37259;49.972;19.850;2023-12-14T03:16:12;33.1;;;15.9;;
51194;SDS011;37259;49.972;19.850;2023-12-14T03:17:12;33.1;;;15.9;;
51194;SDS011;37259;49.972;19.850;2023-12-14T03:18:12;33.1;;;15.9;;
51194;SDS011;37259;49.972;19.850;2023-12-14T03:19:12;33.1;;;15.9;;
51194;SDS011;37259;49.972;19.850;2023-12-14T03:20:12;33.1;;;15.9;;
51194;SDS011;37259;49.972;19.850;2023-12-14T03:21:12;33.1;;;15.9;;
51194;SDS011;37259;49.972;19.850;2023-12-14T03:22:12;33.1;;;15.9;;
51194;SDS011;37259;49.972;19.850;2023-12-14T03:23:12;33.1;;;15.9;;
51194;SDS011;37259;49.972;19.850;2023-12-14T03:24:12;33.1;;;15.9;;
51194;SDS011;37259;49.972;19.850;2023-12-14T03:25:12;33.1;;;15.9;;
51194;SDS011;37259;49.972;19.850;2023-12-14T03:26:12;33.1;;;15.9;;
51194;SDS011;37259;49.972;19.850;2023-12-14T03:27:12;33.1;;;15.9;;
51194;SDS011;37259;49.972;19.850;2023-12-14T03:28:12;33.1;;;15.9;;
51194;SDS011;37259;49.972;19.850;2023-12-14T03:29:12;33.1;;;15.9;;
51194;SDS011;37259;49.972;19.850;2023-12-14T03:30:12;33.1;;;15.9;;
51194;SDS011;37259;49.972;19.850;2023-12-14T03:31:12;31.4;;;16.3;;
51194;SDS011;37259;49.972;19.850;2023-12-14T03:32:12;31.4;;;16.3;;
51194;SDS011;37259;49.972;19.850;2023-12-14T03:33:12;31.4;;;16.3;;
51194;SDS011;37259;49.972;19.850;2023-12-14T03:34:12;31.4;;;16.3;;
51194;SDS011;37259;49.972;19.850;2023-12-14T03:35:12;31.4;;;16.3;;
51194;SDS011;37259;49.972;19.850;2023-12-14T03:36:12;31.4;;;16.3;;
51194;SDS011;37259;49.972;19.850;2023-12-14T03:37:12;31.4;;;16.3;;
51194;SDS011;37259;49.972;19.850;2023-12-14T03:38:12;31.4;;;16.3;;
51194;SDS011;37259;49.972;19.850;2023-12-14T03:39:12;31.4;;;16.3;;
51194;SDS011;37259;49.972;19.850;2023-12-14T03:40:12;31.4;;;16.3;;
51194;SDS011;37259;49.972;19.850;2023-12-14T03:41:12;31.4;;;16.3;;
51194;SDS011;37259;49.972;19.850;2023-12-14T03:42:12;31.4;;;16.3;;
51194;SDS011;37259;49.972;19.850;2023-12-14T03:43:12;31.4;;;16.3;;
51194;SDS011;37259;49.972;19.850;2023-12-14T03:44:12;31.4;;;16.3;;
51194;SDS011;37259;49.972;19.850;2023-12-14T03:45:12;31.4;;;16.3;;
51194;SDS011;37259;49.972;19.850;2023-12-14T03:46:12;31.4;;;16.3;;
51194;SDS011;37259;49.972;19.850;2023-12-14T03:47:12;31.4;;;16.3;;
51194;SDS011;37259;49.972;19.850;2023-12-14T03:48:12;31.4;;;16.3;;
51194;SDS011;37259;49.972;19.850;2023-12-14T03:49:12;31.4;;;16.3;;
51194;SDS011;37259;49.972;19.850;2023-12-14T03:50:12;31.4;;;16.3;;
51194;SDS011;37259;49.972;19.850;2023-12-14T03:51:12;31.4;;;16.3;;
51194;SDS011;37259;49.972;19.850;2023-12-14T03:52:12;31.4;;;16.3;;
51194;SDS011;37259;49.972;19.850;2023-12-14T03:53:13;31.4;;;16.3;;
51194;SDS011;37259;49.972;19.850;2023-12-14T03:54:12;31.4;;;16.3;;
51194;SDS011;37259;49.972;19.850;2023-12-14T03:55:13;31.4;;;16.3;;
51194;SDS011;37259;49.972;19.850;2023-12-14T03:56:12;31.4;;;16.3;;
51194;SDS011;37259;49.972;19.850;2023-12-14T03:57:12;31.4;;;16.3;;
51194;SDS011;37259;49.972;19.850;2023-12-14T03:58:12;31.4;;;16.3;;
51194;SDS011;37259;49.972;19.850;2023-12-14T03:59:13;31.4;;;16.3;;
51194;SDS011;37259;49.972;19.850;2023-12-14T04:00:13;31.4;;;16.3;;
51194;SDS011;37259;49.972;19.850;2023-12-14T04:01:16;26.3;;;15.9;;
51194;SDS011;37259;49.972;19.850;2023-12-14T04:02:12;26.3;;;15.9;;
51194;SDS011;37259;49.972;19.850;2023-12-14T04:03:12;26.3;;;15.9;;
51194;SDS011;37259;49.972;19.850;2023-12-14T04:04:12;26.3;;;15.9;;
51194;SDS011;37259;49.972;19.850;2023-12-14T04:05:13;26.3;;;15.9;;
51194;SDS011;37259;49.972;19.850;2023-12-14T04:06:13;26.3;;;15.9;;
51194;SDS011;37259;49.972;19.850;2023-12-14T04:07:12;26.3;;;15.9;;
51194;SDS011;37259;49.972;19.850;2023-12-14T04:08:13;26.3;;;15.9;;
51194;SDS011;37259;49.972;19.850;2023-12-14T04:09:12;26.3;;;15.9;;
51194;SDS011;37259;49.972;19.850;2023-12-14T04:10:12;26.3;;;15.9;;
51194;SDS011;37259;49.972;19.850;2023-12-14T04:11:12;26.3;;;15.9;;
51194;SDS011;37259;49.972;19.850;2023-12-14T04:12:12;26.3;;;15.9;;
51194;SDS011;37259;49.972;19.850;2023-12-14T04:13:12;26.3;;;15.9;;
51194;SDS011;37259;49.972;19.850;2023-12-14T04:14:12;26.3;;;15.9;;
51194;SDS011;37259;49.972;19.850;2023-12-14T04:15:13;26.3;;;15.9;;
51194;SDS011;37259;49.972;19.850;2023-12-14T04:16:12;26.3;;;15.9;;
51194;SDS011;37259;49.972;19.850;2023-12-14T04:17:12;26.3;;;15.9;;
51194;SDS011;37259;49.972;19.850;2023-12-14T04:18:12;26.3;;;15.9;;
51194;SDS011;37259;49.972;19.850;2023-12-14T04:19:12;26.3;;;15.9;;
51194;SDS011;37259;49.972;19.850;2023-12-14T04:20:13;26.3;;;15.9;;
51194;SDS011;37259;49.972;19.850;2023-12-14T04:21:12;26.3;;;15.9;;
51194;SDS011;37259;49.972;19.850;2023-12-14T04:22:12;26.3;;;15.9;;
51194;SDS011;37259;49.972;19.850;2023-12-14T04:23:13;26.3;;;15.9;;
51194;SDS011;37259;49.972;19.850;2023-12-14T04:24:12;26.3;;;15.9;;
51194;SDS011;37259;49.972;19.850;2023-12-14T04:25:12;26.3;;;15.9;;
51194;SDS011;37259;49.972;19.850;2023-12-14T04:26:12;26.3;;;15.9;;
51194;SDS011;37259;49.972;19.850;2023-12-14T04:27:12;26.3;;;15.9;;
51194;SDS011;37259;49.972;19.850;2023-12-14T04:28:13;26.3;;;15.9;;
51194;SDS011;37259;49.972;19.850;2023-12-14T04:29:12;26.3;;;15.9;;
51194;SDS011;37259;49.972;19.850;2023-12-14T04:30:13;26.3;;;15.9;;
51194;SDS011;37259;49.972;19.850;2023-12-14T04:31:13;33.1;;;15.3;;
51194;SDS011;37259;49.972;19.850;2023-12-14T04:32:12;33.1;;;15.3;;
51194;SDS011;37259;49.972;19.850;2023-12-14T04:33:12;33.1;;;15.3;;
51194;SDS011;37259;49.972;19.850;2023-12-14T04:34:13;33.1;;;15.3;;
51194;SDS011;37259;49.972;19.850;2023-12-14T04:35:12;33.1;;;15.3;;
51194;SDS011;37259;49.972;19.850;2023-12-14T04:36:12;33.1;;;15.3;;
51194;SDS011;37259;49.972;19.850;2023-12-14T04:37:12;33.1;;;15.3;;
51194;SDS011;37259;49.972;19.850;2023-12-14T04:38:12;33.1;;;15.3;;
51194;SDS011;37259;49.972;19.850;2023-12-14T04:39:12;33.1;;;15.3;;
51194;SDS011;37259;49.972;19.850;2023-12-14T04:40:12;33.1;;;15.3;;
51194;SDS011;37259;49.972;19.850;2023-12-14T04:41:13;33.1;;;15.3;;
51194;SDS011;37259;49.972;19.850;2023-12-14T04:42:12;33.1;;;15.3;;
51194;SDS011;37259;49.972;19.850;2023-12-14T04:43:12;33.1;;;15.3;;
51194;SDS011;37259;49.972;19.850;2023-12-14T04:44:12;33.1;;;15.3;;
51194;SDS011;37259;49.972;19.850;2023-12-14T04:45:13;33.1;;;15.3;;
51194;SDS011;37259;49.972;19.850;2023-12-14T04:46:12;33.1;;;15.3;;
51194;SDS011;37259;49.972;19.850;2023-12-14T04:47:12;33.1;;;15.3;;
51194;SDS011;37259;49.972;19.850;2023-12-14T04:48:12;33.1;;;15.3;;
51194;SDS011;37259;49.972;19.850;2023-12-14T04:49:12;33.1;;;15.3;;
51194;SDS011;37259;49.972;19.850;2023-12-14T04:50:12;33.1;;;15.3;;
51194;SDS011;37259;49.972;19.850;2023-12-14T04:51:12;33.1;;;15.3;;
51194;SDS011;37259;49.972;19.850;2023-12-14T04:52:12;33.1;;;15.3;;
51194;SDS011;37259;49.972;19.850;2023-12-14T04:53:12;33.1;;;15.3;;
51194;SDS011;37259;49.972;19.850;2023-12-14T04:54:12;33.1;;;15.3;;
51194;SDS011;37259;49.972;19.850;2023-12-14T04:55:12;33.1;;;15.3;;
51194;SDS011;37259;49.972;19.850;2023-12-14T04:56:12;33.1;;;15.3;;
51194;SDS011;37259;49.972;19.850;2023-12-14T04:57:12;33.1;;;15.3;;
51194;SDS011;37259;49.972;19.850;2023-12-14T04:58:12;33.1;;;15.3;;
51194;SDS011;37259;49.972;19.850;2023-12-14T04:59:12;33.1;;;15.3;;
51194;SDS011;37259;49.972;19.850;2023-12-14T05:00:13;33.1;;;15.3;;
51194;SDS011;37259;49.972;19.850;2023-12-14T05:01:12;27.2;;;14.6;;
51194;SDS011;37259;49.972;19.850;2023-12-14T05:02:12;27.2;;;14.6;;
51194;SDS011;37259;49.972;19.850;2023-12-14T05:03:13;27.2;;;14.6;;
51194;SDS011;37259;49.972;19.850;2023-12-14T05:04:12;27.2;;;14.6;;
51194;SDS011;37259;49.972;19.850;2023-12-14T05:05:12;27.2;;;14.6;;
51194;SDS011;37259;49.972;19.850;2023-12-14T05:06:12;27.2;;;14.6;;
51194;SDS011;37259;49.972;19.850;2023-12-14T05:07:12;27.2;;;14.6;;
51194;SDS011;37259;49.972;19.850;2023-12-14T05:08:12;27.2;;;14.6;;
51194;SDS011;37259;49.972;19.850;2023-12-14T05:09:13;27.2;;;14.6;;
51194;SDS011;37259;49.972;19.850;2023-12-14T05:10:12;27.2;;;14.6;;
51194;SDS011;37259;49.972;19.850;2023-12-14T05:11:13;27.2;;;14.6;;
51194;SDS011;37259;49.972;19.850;2023-12-14T05:12:12;27.2;;;14.6;;
51194;SDS011;37259;49.972;19.850;2023-12-14T05:13:13;27.2;;;14.6;;
51194;SDS011;37259;49.972;19.850;2023-12-14T05:14:12;27.2;;;14.6;;
51194;SDS011;37259;49.972;19.850;2023-12-14T05:15:13;27.2;;;14.6;;
51194;SDS011;37259;49.972;19.850;2023-12-14T05:16:13;27.2;;;14.6;;
51194;SDS011;37259;49.972;19.850;2023-12-14T05:17:12;27.2;;;14.6;;
51194;SDS011;37259;49.972;19.850;2023-12-14T05:18:13;27.2;;;14.6;;
51194;SDS011;37259;49.972;19.850;2023-12-14T05:19:13;27.2;;;14.6;;
51194;SDS011;37259;49.972;19.850;2023-12-14T05:20:12;27.2;;;14.6;;
51194;SDS011;37259;49.972;19.850;2023-12-14T05:21:16;27.2;;;14.6;;
51194;SDS011;37259;49.972;19.850;2023-12-14T05:22:12;27.2;;;14.6;;
51194;SDS011;37259;49.972;19.850;2023-12-14T05:23:12;27.2;;;14.6;;
51194;SDS011;37259;49.972;19.850;2023-12-14T05:24:13;27.2;;;14.6;;
51194;SDS011;37259;49.972;19.850;2023-12-14T05:25:12;27.2;;;14.6;;
51194;SDS011;37259;49.972;19.850;2023-12-14T05:26:12;27.2;;;14.6;;
51194;SDS011;37259;49.972;19.850;2023-12-14T05:27:12;27.2;;;14.6;;
51194;SDS011;37259;49.972;19.850;2023-12-14T05:28:12;27.2;;;14.6;;
51194;SDS011;37259;49.972;19.850;2023-12-14T05:29:13;27.2;;;14.6;;
51194;SDS011;37259;49.972;19.850;2023-12-14T05:30:13;27.2;;;14.6;;
51194;SDS011;37259;49.972;19.850;2023-12-14T05:31:12;28.7;;;15.4;;
51194;SDS011;37259;49.972;19.850;2023-12-14T05:32:12;28.7;;;15.4;;
51194;SDS011;37259;49.972;19.850;2023-12-14T05:33:12;28.7;;;15.4;;
51194;SDS011;37259;49.972;19.850;2023-12-14T05:34:13;28.7;;;15.4;;
51194;SDS011;37259;49.972;19.850;2023-12-14T05:35:12;28.7;;;15.4;;
51194;SDS011;37259;49.972;19.850;2023-12-14T05:36:13;28.7;;;15.4;;
51194;SDS011;37259;49.972;19.850;2023-12-14T05:37:12;28.7;;;15.4;;
51194;SDS011;37259;49.972;19.850;2023-12-14T05:38:13;28.7;;;15.4;;
51194;SDS011;37259;49.972;19.850;2023-12-14T05:39:13;28.7;;;15.4;;
51194;SDS011;37259;49.972;19.850;2023-12-14T05:40:13;28.7;;;15.4;;
51194;SDS011;37259;49.972;19.850;2023-12-14T05:41:12;28.7;;;15.4;;
51194;SDS011;37259;49.972;19.850;2023-12-14T05:42:15;28.7;;;15.4;;
51194;SDS011;37259;49.972;19.850;2023-12-14T05:43:12;28.7;;;15.4;;
51194;SDS011;37259;49.972;19.850;2023-12-14T05:44:12;28.7;;;15.4;;
51194;SDS011;37259;49.972;19.850;2023-12-14T05:45:13;28.7;;;15.4;;
51194;SDS011;37259;49.972;19.850;2023-12-14T05:46:19;28.7;;;15.4;;
51194;SDS011;37259;49.972;19.850;2023-12-14T05:47:12;28.7;;;15.4;;
51194;SDS011;37259;49.972;19.850;2023-12-14T05:48:12;28.7;;;15.4;;
51194;SDS011;37259;49.972;19.850;2023-12-14T05:49:12;28.7;;;15.4;;
51194;SDS011;37259;49.972;19.850;2023-12-14T05:50:13;28.7;;;15.4;;
51194;SDS011;37259;49.972;19.850;2023-12-14T05:51:13;28.7;;;15.4;;
51194;SDS011;37259;49.972;19.850;2023-12-14T05:52:12;28.7;;;15.4;;
51194;SDS011;37259;49.972;19.850;2023-12-14T05:53:12;28.7;;;15.4;;
51194;SDS011;37259;49.972;19.850;2023-12-14T05:54:13;28.7;;;15.4;;
51194;SDS011;37259;49.972;19.850;2023-12-14T05:55:12;28.7;;;15.4;;